Time;durP1;ratioP1;P1;durP2;ratioP2;P2;SDS_P1;SDS_P2;PMS_P1;PMS_P2;Temp;Humidity;BMP_temperature;BMP_pressure;BME280_temperature;BME280_humidity;BME280_pressure;Samples;Min_cycle;Max_cycle;Signal;HPM_P1;HPM_P2
2023/08/29 09:58:10;;;;;;;;;17.00;17.00;;;;;22.71;100.00;98502.81;6259443;20;3564889;-51
2023/08/29 10:00:44;;;;;;;;;19.33;18.33;;;;;25.47;nan;98508.09;6273780;20;2839892;-50
2023/08/29 10:03:12;;;;;;;;;15.50;14.50;;;;;21.13;nan;98444.63;6071088;20;2810091;-46
2023/08/29 10:05:44;;;;;;;;;20.00;16.00;;;;;21.00;nan;98409.00;6298166;20;2831680;-45
2023/08/29 10:08:19;;;;;;;;;19.33;17.67;;;;;21.40;nan;98409.44;6294489;20;2485822;-47
2023/08/29 10:10:48;;;;;;;;;18.50;15.50;;;;;21.39;nan;98413.25;6325903;20;2815981;-44
2023/08/29 10:13:19;;;;;;;;;16.00;14.67;;;;;21.43;nan;98423.59;6300267;20;3554493;-46
2023/08/29 10:15:48;;;;;;;;;18.00;15.67;;;;;21.08;nan;98429.88;6302823;20;3558748;-47
2023/08/29 10:18:18;;;;;;;;;17.67;16.67;;;;;21.09;nan;98467.91;6294927;20;3566965;-44
2023/08/29 10:20:49;;;;;;;;;18.67;17.67;;;;;21.20;nan;98496.59;6296272;20;2835856;-46
2023/08/29 10:23:18;;;;;;;;;21.00;17.33;;;;;21.02;nan;98555.16;6330771;20;3569039;-46
2023/08/29 10:25:47;;;;;;;;;22.00;19.00;;;;;20.21;nan;98562.28;6298346;20;2845647;-46
2023/08/29 10:28:17;;;;;;;;;24.00;16.67;;;;;20.55;nan;98511.88;6299571;20;3594026;-48
2023/08/29 10:30:52;;;;;;;;;20.00;16.00;;;;;20.83;nan;98466.53;6303192;20;3577360;-48
2023/08/29 10:33:22;;;;;;;;;18.33;18.33;;;;;21.05;nan;98474.78;6295391;20;2846180;-47
2023/08/29 10:35:52;;;;;;;;;23.00;19.00;;;;;21.23;nan;98475.22;6330783;20;3577408;-46
2023/08/29 10:38:21;;;;;;;;;18.50;17.50;;;;;21.53;nan;98458.75;6326696;20;2825755;-56
2023/08/29 10:41:06;;;;;;;;;15.00;14.50;;;;;22.20;nan;98462.94;6298332;20;2814863;-47
2023/08/29 10:46:17;;;;;;;;;16.75;14.75;;;;;23.11;4.78;98459.25;6283016;20;4279422;-47
2023/08/29 10:48:53;;;;;;;;;16.00;16.00;;;;;22.97;5.05;98436.44;6330822;20;2835835;-44
2023/08/29 10:51:27;;;;;;;;;15.00;15.00;;;;;22.52;5.16;98412.22;6302866;20;3546078;-47
2023/08/29 10:54:06;;;;;;;;;13.67;13.67;;;;;22.61;4.82;98409.31;6332038;20;3532630;-46
2023/08/29 10:56:45;;;;;;;;;15.50;13.50;;;;;22.70;4.86;98419.06;6301997;20;2808671;-47
2023/08/29 10:59:36;;;;;;;;;17.50;16.00;;;;;22.90;4.71;98424.59;6296946;20;2827360;-48
2023/08/29 11:02:29;;;;;;;;;18.50;17.00;;;;;23.21;4.75;98424.09;6298612;20;2831582;-43
2023/08/29 11:05:07;;;;;;;;;14.67;14.67;;;;;23.40;4.47;98409.59;6303392;20;3533644;-44
2023/08/29 11:07:39;;;;;;;;;14.67;13.33;;;;;23.58;4.43;98402.66;6334113;20;3535737;-46
2023/08/29 11:10:24;;;;;;;;;14.67;14.00;;;;;23.76;4.68;98408.41;6333266;20;3529586;-46
2023/08/29 11:13:11;;;;;;;;;14.00;14.00;;;;;23.64;4.81;98404.56;6332473;20;3537845;-45
2023/08/29 11:15:55;;;;;;;;;13.00;12.67;;;;;23.46;4.58;98402.47;6336032;20;2801344;-42
2023/08/29 11:18:33;;;;;;;;;15.67;13.33;;;;;29.50;nan;98416.44;6324794;20;3533594;-46
2023/08/29 11:21:23;;;;;;;;;9.67;9.67;;;;;22.61;5.91;98391.00;6284630;20;3499267;-46
2023/08/29 11:23:54;;;;;;;;;12.33;11.67;;;;;23.34;5.35;98383.03;6310680;20;2492052;-51
2023/08/29 11:26:46;;;;;;;;;15.00;15.00;;;;;22.64;6.07;98376.06;6334931;20;3548219;-54
2023/08/29 11:29:16;;;;;;;;;19.67;16.00;;;;;23.20;5.70;98367.66;6304792;20;3557582;-55
2023/08/29 11:31:46;;;;;;;;;18.67;14.33;;;;;23.33;5.91;98361.31;6331093;20;2825361;-54
2023/08/29 11:34:18;;;;;;;;;19.50;16.00;;;;;22.61;6.15;98362.81;6326550;20;2831702;-56
2023/08/29 11:36:50;;;;;;;;;17.00;16.00;;;;;23.26;6.50;98364.06;6300030;20;2829472;-55
2023/08/29 11:39:21;;;;;;;;;16.00;15.00;;;;;23.97;6.46;98370.84;6298105;20;3542021;-54
2023/08/29 11:41:50;;;;;;;;;16.67;14.33;;;;;23.25;6.28;98376.09;6300887;20;3526419;-56
2023/08/29 11:44:40;;;;;;;;;9.67;7.67;;;;;23.57;6.19;98385.38;6297651;20;3471220;-53
2023/08/29 11:47:29;;;;;;;;;14.67;11.33;;;;;23.48;6.50;98383.06;6330447;20;3512804;-57
2023/08/29 11:49:57;;;;;;;;;14.00;12.67;;;;;23.08;6.63;98377.50;6334936;20;2492028;-57
2023/08/29 11:52:26;;;;;;;;;14.00;13.00;;;;;22.64;7.21;98378.81;6328792;20;3506541;-57
2023/08/29 11:54:56;;;;;;;;;13.67;13.67;;;;;23.10;6.84;98369.94;6302299;20;2786073;-54
2023/08/29 11:57:31;;;;;;;;;10.67;10.67;;;;;22.95;7.01;98376.38;6328583;20;3518141;-56
2023/08/29 12:00:04;;;;;;;;;15.00;13.00;;;;;23.16;7.24;98386.38;6298447;20;3525363;-57
2023/08/29 12:02:34;;;;;;;;;13.67;12.00;;;;;23.71;7.35;98380.75;6303991;20;2778540;-57
2023/08/29 12:05:07;;;;;;;;;11.67;9.33;;;;;23.64;7.06;98388.13;6339780;20;2784762;-52
2023/08/29 12:07:37;;;;;;;;;14.33;10.67;;;;;24.26;7.47;98392.31;6330474;20;3515921;-56
2023/08/29 12:10:14;;;;;;;;;14.00;11.33;;;;;24.27;7.30;98388.50;6298301;20;3520108;-58
2023/08/29 12:12:43;;;;;;;;;12.00;11.50;;;;;23.43;7.47;98392.75;6333068;20;2492003;-58
2023/08/29 12:15:14;;;;;;;;;12.33;11.00;;;;;22.87;8.35;98382.06;6328913;20;3507546;-53
2023/08/29 12:17:49;;;;;;;;;11.00;11.00;;;;;23.10;8.20;98380.91;6329832;20;3522154;-55
2023/08/29 12:20:29;;;;;;;;;11.67;11.00;;;;;23.18;8.19;98378.81;6295576;20;3514848;-55
2023/08/29 12:22:58;;;;;;;;;10.00;10.00;;;;;23.82;8.11;98377.38;6297460;20;3517967;-56
2023/08/29 12:25:27;;;;;;;;;11.00;11.00;;;;;23.50;8.13;98391.91;6329720;20;3517988;-62
2023/08/29 12:27:57;;;;;;;;;11.67;11.67;;;;;23.83;8.26;98386.47;6332628;20;3512899;-60
2023/08/29 12:30:25;;;;;;;;;13.67;12.67;;;;;24.23;8.34;98386.44;6330545;20;3510738;-62
2023/08/29 12:32:55;;;;;;;;;14.67;12.00;;;;;23.86;8.20;98389.63;6275184;20;3505560;-61
2023/08/29 12:35:23;;;;;;;;;12.00;12.00;;;;;23.27;8.72;98393.13;6306514;20;3507553;-61
2023/08/29 12:37:52;;;;;;;;;13.00;12.00;;;;;23.40;9.04;98404.09;6306784;20;2783746;-62
2023/08/29 12:40:21;;;;;;;;;13.00;10.33;;;;;23.50;8.48;98414.66;6274203;20;3520116;-61
2023/08/29 12:42:51;;;;;;;;;15.67;12.00;;;;;23.34;8.62;98407.69;6275801;20;3519320;-60
2023/08/29 12:45:20;;;;;;;;;11.67;10.67;;;;;23.16;8.94;98401.97;6305781;20;3522240;-61
2023/08/29 12:47:50;;;;;;;;;17.00;14.67;;;;;23.20;9.25;98411.47;6305742;20;2483725;-61
2023/08/29 12:50:20;;;;;;;;;15.00;13.67;;;;;23.03;9.62;98421.94;6311465;20;3515896;-60
2023/08/29 12:52:49;;;;;;;;;11.67;11.67;;;;;23.09;9.28;98423.00;6304053;20;3512856;-60
2023/08/29 12:55:18;;;;;;;;;17.00;14.00;;;;;23.67;9.74;98421.44;6306792;20;3531566;-61
2023/08/29 12:57:49;;;;;;;;;14.67;13.67;;;;;23.33;9.63;98430.66;6308093;20;3523310;-60
2023/08/29 13:00:18;;;;;;;;;15.00;13.00;;;;;23.35;9.53;98434.03;6309384;20;3520270;-60
2023/08/29 13:02:48;;;;;;;;;11.67;11.67;;;;;23.54;9.54;98426.03;6304208;20;3506641;-61
2023/08/29 13:05:19;;;;;;;;;15.00;13.33;;;;;23.20;10.14;98441.59;6309313;20;3514017;-60
2023/08/29 13:07:48;;;;;;;;;14.67;12.67;;;;;23.24;10.07;98442.84;6303038;20;3513033;-61
2023/08/29 13:10:17;;;;;;;;;15.00;13.33;;;;;23.50;10.31;98433.00;6273424;20;3525693;-61
2023/08/29 13:12:46;;;;;;;;;10.33;10.33;;;;;23.49;10.22;98432.19;6306115;20;3522376;-60
2023/08/29 13:15:16;;;;;;;;;13.00;12.00;;;;;23.39;10.47;98424.34;6273087;20;3512833;-60
2023/08/29 13:17:46;;;;;;;;;13.00;11.67;;;;;23.57;10.21;98420.16;6307799;20;2492020;-61
2023/08/29 13:20:16;;;;;;;;;16.33;12.67;;;;;24.05;10.60;98417.25;6308605;20;2487928;-61
2023/08/29 13:22:46;;;;;;;;;12.00;12.00;;;;;23.66;10.76;98414.25;6307889;20;3505532;-60
2023/08/29 13:25:19;;;;;;;;;11.00;11.00;;;;;23.68;10.96;98427.75;6315478;20;2483650;-61
2023/08/29 13:27:49;;;;;;;;;16.33;11.00;;;;;23.85;11.17;98418.09;6303015;20;2491973;-61
2023/08/29 13:30:18;;;;;;;;;15.33;14.67;;;;;23.49;11.20;98417.63;6306889;20;3516963;-60
2023/08/29 13:32:51;;;;;;;;;13.33;12.00;;;;;23.92;11.12;98422.75;6302752;20;3508636;-60
2023/08/29 13:35:20;;;;;;;;;13.33;13.33;;;;;23.76;11.18;98422.09;6305522;20;3516933;-60
2023/08/29 13:37:49;;;;;;;;;15.50;15.00;;;;;24.13;11.73;98413.44;6272763;20;2798468;-60
2023/08/29 13:40:18;;;;;;;;;14.00;12.00;;;;;23.53;11.89;98418.88;6279010;20;2788913;-60
2023/08/29 13:42:49;;;;;;;;;17.00;15.00;;;;;23.84;11.82;98421.88;6302783;20;2818433;-62
2023/08/29 13:45:18;;;;;;;;;11.00;10.00;;;;;23.36;12.33;98411.06;6279166;20;2789924;-61
2023/08/29 13:47:48;;;;;;;;;13.00;13.00;;;;;23.92;12.03;98404.38;6304522;20;3511738;-61
2023/08/29 13:50:18;;;;;;;;;13.00;10.67;;;;;23.68;12.38;98400.34;6277207;20;2483684;-61
2023/08/29 13:52:47;;;;;;;;;13.33;12.33;;;;;23.76;12.36;98402.91;6302826;20;3507685;-61
2023/08/29 13:55:16;;;;;;;;;12.67;11.33;;;;;23.14;12.81;98409.53;6271356;20;3504531;-61
2023/08/29 13:57:45;;;;;;;;;13.33;13.33;;;;;23.01;13.15;98402.13;6273031;20;2483743;-61
2023/08/29 14:00:14;;;;;;;;;12.67;11.67;;;;;23.01;13.08;98404.84;6307306;20;2488249;-61
2023/08/29 14:02:43;;;;;;;;;15.00;14.00;;;;;23.05;13.43;98405.31;6302004;20;3518054;-61
2023/08/29 14:05:13;;;;;;;;;16.00;15.00;;;;;22.87;13.78;98403.13;6303916;20;2806521;-61
2023/08/29 14:07:42;;;;;;;;;15.33;13.33;;;;;23.30;13.40;98395.47;6270346;20;3518023;-61
2023/08/29 14:10:11;;;;;;;;;16.33;14.67;;;;;22.96;14.16;98402.75;6275384;20;3546265;-61
2023/08/29 14:12:40;;;;;;;;;17.00;14.33;;;;;22.72;13.89;98416.94;6273460;20;3533629;-62
2023/08/29 14:15:09;;;;;;;;;13.00;12.67;;;;;22.48;14.20;98410.94;6276765;20;3525381;-59
2023/08/29 14:17:38;;;;;;;;;16.67;13.00;;;;;22.56;14.00;98416.25;6272522;20;3531592;-60
2023/08/29 14:20:08;;;;;;;;;15.50;15.50;;;;;22.71;14.52;98416.09;6303873;20;2821276;-60
2023/08/29 14:22:37;;;;;;;;;15.50;14.50;;;;;22.62;14.17;98427.41;6270893;20;2815990;-60
2023/08/29 14:25:06;;;;;;;;;17.33;16.00;;;;;22.61;14.24;98420.25;6274053;20;3549263;-59
2023/08/29 14:27:35;;;;;;;;;15.00;15.00;;;;;22.56;14.45;98413.53;6274480;20;2802408;-60
2023/08/29 14:30:08;;;;;;;;;19.00;16.50;;;;;22.26;14.65;98407.44;6269515;20;2836802;-60
2023/08/29 14:32:37;;;;;;;;;21.50;16.00;;;;;22.26;15.39;98412.91;6273208;20;2844161;-60
2023/08/29 14:35:07;;;;;;;;;14.50;14.50;;;;;22.27;15.36;98403.66;6271520;20;2812885;-61
2023/08/29 14:37:36;;;;;;;;;11.00;11.00;;;;;22.25;15.52;98404.91;6278628;20;3520084;-60
2023/08/29 14:40:07;;;;;;;;;17.67;14.67;;;;;22.06;15.52;98400.97;6305387;20;3550341;-60
2023/08/29 14:42:36;;;;;;;;;19.33;18.00;;;;;22.19;15.83;98392.03;6304935;20;3570081;-60
2023/08/29 14:45:06;;;;;;;;;18.00;17.00;;;;;21.88;15.68;98385.06;6275782;20;2833638;-60
2023/08/29 14:47:36;;;;;;;;;16.00;14.50;;;;;21.84;15.29;98381.88;6304386;20;2814930;-58
2023/08/29 14:50:06;;;;;;;;;22.67;18.00;;;;;21.73;15.07;98367.94;6273189;20;2837203;-58
2023/08/29 14:52:35;;;;;;;;;19.00;18.33;;;;;21.88;14.88;98355.00;6305630;20;3570093;-58
2023/08/29 14:55:05;;;;;;;;;18.00;16.67;;;;;22.33;15.63;98350.91;6274218;20;3573161;-54
2023/08/29 14:57:34;;;;;;;;;19.00;16.00;;;;;21.66;15.81;98352.31;6272697;20;2830534;-57
2023/08/29 15:00:05;;;;;;;;;18.33;14.33;;;;;21.86;15.48;98354.38;6277579;20;3553826;-54
2023/08/29 15:02:34;;;;;;;;;17.50;15.50;;;;;21.77;15.94;98364.59;6270986;20;2827406;-54
2023/08/29 15:05:03;;;;;;;;;15.00;14.00;;;;;21.70;16.37;98361.00;6271838;20;2801763;-55
2023/08/29 15:07:32;;;;;;;;;18.00;14.50;;;;;21.59;17.24;98343.25;6274272;20;2810778;-53
2023/08/29 15:10:01;;;;;;;;;13.67;13.67;;;;;22.02;17.51;98331.34;6276978;20;2494019;-59
2023/08/29 15:12:30;;;;;;;;;14.00;14.00;;;;;21.89;17.73;98310.25;6301835;20;2806530;-59
2023/08/29 15:14:58;;;;;;;;;14.00;13.00;;;;;21.56;17.74;98319.03;6274019;20;2796137;-59
2023/08/29 15:17:29;;;;;;;;;16.00;15.00;;;;;21.67;18.19;98326.72;6273124;20;2815006;-59
2023/08/29 15:19:58;;;;;;;;;15.00;13.50;;;;;21.83;18.40;98325.56;6269563;20;2795206;-60
2023/08/29 15:22:28;;;;;;;;;16.00;15.00;;;;;21.52;18.42;98320.50;6269397;20;3549665;-59
2023/08/29 15:24:57;;;;;;;;;15.33;13.00;;;;;21.57;18.42;98318.03;6275458;20;2790053;-57
2023/08/29 15:27:26;;;;;;;;;16.50;14.50;;;;;21.43;18.75;98308.88;6303227;20;2820111;-58
2023/08/29 15:29:54;;;;;;;;;15.50;14.50;;;;;21.59;18.72;98305.00;6274349;20;2808113;-59
2023/08/29 15:32:25;;;;;;;;;17.67;16.67;;;;;22.09;18.84;98296.69;6276130;20;3556570;-59
2023/08/29 15:34:54;;;;;;;;;18.00;18.00;;;;;21.88;18.71;98300.34;6272230;20;3571098;-59
